Time;durP1;ratioP1;P1;durP2;ratioP2;P2;SDS_P1;SDS_P2;PMS_P1;PMS_P2;Temp;Humidity;BMP_temperature;BMP_pressure;BME280_temperature;BME280_humidity;BME280_pressure;Samples;Min_cycle;Max_cycle;Signal;HPM_P1;HPM_P2
2023/04/07 00:02:04;;;;;;;15.00;11.70;;;6.80;84.60;;;6.18;52.56;101042.09;5096574;28;20206;-73
2023/04/07 00:04:36;;;;;;;16.00;11.37;;;6.70;84.90;;;6.05;52.87;101044.94;5096573;28;20185;-73
2023/04/07 00:07:09;;;;;;;12.70;11.00;;;6.70;84.90;;;6.09;52.65;101049.03;5096427;28;20240;-73
2023/04/07 00:09:41;;;;;;;13.70;10.97;;;6.70;85.20;;;6.04;53.05;101048.53;5096113;28;20200;-73
2023/04/07 00:12:13;;;;;;;12.27;10.40;;;6.60;85.40;;;5.97;53.05;101039.38;5096309;28;20644;-73
2023/04/07 00:14:45;;;;;;;13.53;10.63;;;6.60;85.60;;;5.95;53.55;101042.16;5095907;28;20677;-73
2023/04/07 00:17:17;;;;;;;13.03;10.93;;;6.50;86.10;;;5.93;53.52;101040.59;5096212;28;20628;-73
2023/04/07 00:19:49;;;;;;;14.40;11.53;;;6.50;86.50;;;5.81;53.64;101049.50;5095944;28;20195;-73
2023/04/07 00:22:22;;;;;;;13.37;11.10;;;6.40;86.70;;;5.72;54.01;101042.28;5096153;28;20189;-73
2023/04/07 00:24:54;;;;;;;13.03;11.27;;;6.40;87.30;;;5.67;54.16;101055.06;5096138;28;20193;-73
2023/04/07 00:27:26;;;;;;;14.30;11.30;;;6.20;87.40;;;5.70;54.05;101052.19;5095937;28;20697;-73
2023/04/07 00:29:57;;;;;;;13.10;11.30;;;6.30;88.30;;;5.75;53.88;101042.03;5096041;28;20193;-73
2023/04/07 00:32:29;;;;;;;17.70;13.07;;;6.40;87.00;;;5.72;53.78;101042.28;5096217;28;20200;-73
2023/04/07 00:35:01;;;;;;;16.00;13.43;;;6.40;86.70;;;5.67;53.98;101047.09;5095861;28;20262;-73
2023/04/07 00:37:34;;;;;;;13.67;11.97;;;6.30;87.30;;;5.76;53.93;101041.06;5095538;28;20731;-73
2023/04/07 00:40:07;;;;;;;12.67;11.37;;;6.40;87.20;;;5.77;53.75;101040.94;5095776;28;20663;-73
2023/04/07 00:42:39;;;;;;;13.23;11.83;;;6.40;87.00;;;5.73;53.64;101033.34;5095834;28;20189;-73
2023/04/07 00:45:12;;;;;;;15.17;12.10;;;6.40;86.40;;;5.76;53.88;101038.41;5095476;28;20522;-73
2023/04/07 00:47:44;;;;;;;14.93;12.10;;;6.40;87.10;;;5.60;54.40;101039.63;5095630;28;20364;-73
2023/04/07 00:50:16;;;;;;;13.67;12.17;;;6.20;87.50;;;5.52;55.00;101035.88;5095636;28;20200;-73
2023/04/07 00:52:50;;;;;;;14.10;11.83;;;6.10;88.00;;;5.35;55.04;101039.84;5095584;28;20189;-73
2023/04/07 00:55:21;;;;;;;14.23;12.23;;;6.00;89.10;;;5.27;55.65;101042.28;5094457;28;20205;-73
2023/04/07 00:57:53;;;;;;;16.50;12.57;;;5.90;89.50;;;5.25;55.73;101044.19;5095248;28;20350;-73
2023/04/07 01:00:25;;;;;;;13.50;11.70;;;5.90;89.90;;;5.30;55.74;101044.69;5095668;28;20208;-73
2023/04/07 01:03:06;;;;;;;13.17;11.77;;;5.90;90.00;;;5.32;55.27;101037.44;5095412;28;20200;-73
2023/04/07 01:05:46;;;;;;;12.73;11.43;;;5.90;89.60;;;5.35;55.77;101039.84;5095062;28;20200;-73
2023/04/07 01:08:26;;;;;;;14.40;12.37;;;6.00;89.50;;;5.33;55.57;101032.97;5095275;28;20193;-73
2023/04/07 01:11:04;;;;;;;14.30;11.60;;;6.00;89.60;;;5.23;56.16;101030.22;5094966;28;20195;-73
2023/04/07 01:13:43;;;;;;;15.97;12.37;;;5.90;89.60;;;5.21;56.66;101028.59;5095150;28;20196;-73
2023/04/07 01:16:22;;;;;;;13.57;12.17;;;5.80;90.20;;;5.04;56.67;101028.13;5094760;28;20597;-73
2023/04/07 01:19:02;;;;;;;15.37;12.00;;;5.70;90.20;;;4.95;57.11;101038.59;5095035;28;20280;-73
2023/04/07 01:21:40;;;;;;;15.23;12.80;;;5.50;90.70;;;4.81;57.19;101033.50;5094765;28;20678;-73
2023/04/07 01:24:39;;;;;;;16.43;13.33;;;5.50;90.80;;;4.61;58.46;101037.66;5094981;28;20185;-73
2023/04/07 01:27:32;;;;;;;14.60;12.10;;;5.30;91.20;;;4.47;58.96;101030.72;5094848;28;20225;-73
2023/04/07 01:30:10;;;;;;;14.60;12.17;;;5.10;91.90;;;4.44;59.07;101028.31;5094875;28;20196;-73
2023/04/07 01:32:50;;;;;;;16.17;12.60;;;5.10;92.10;;;4.44;59.41;101025.66;5094851;28;20192;-73
2023/04/07 01:35:23;;;;;;;13.97;12.33;;;5.10;92.10;;;4.33;59.48;101030.91;5094619;28;20629;-73
2023/04/07 01:37:59;;;;;;;16.47;12.73;;;5.00;92.10;;;4.31;59.28;101024.03;5094650;28;20220;-73
2023/04/07 01:40:33;;;;;;;15.03;12.17;;;4.90;92.40;;;4.37;59.89;101029.72;5094718;28;20195;-73
2023/04/07 01:43:06;;;;;;;15.00;13.17;;;5.00;92.50;;;4.37;59.85;101023.56;5094620;28;20192;-73
2023/04/07 01:45:41;;;;;;;16.17;14.47;;;5.00;92.80;;;4.30;60.13;101028.47;5094597;28;20185;-73
2023/04/07 01:48:14;;;;;;;14.53;13.00;;;5.00;92.40;;;4.34;59.81;101024.66;5094242;28;20193;-73
2023/04/07 01:50:49;;;;;;;15.83;13.37;;;5.00;92.50;;;4.26;60.11;101031.47;5094445;28;20189;-73
2023/04/07 01:53:21;;;;;;;16.80;13.77;;;4.90;92.60;;;4.26;60.05;101024.34;5094429;28;20199;-73
2023/04/07 01:55:54;;;;;;;15.13;13.53;;;5.00;92.50;;;4.25;60.08;101020.00;5094503;28;20213;-73
2023/04/07 01:58:26;;;;;;;16.77;13.33;;;4.90;92.70;;;4.25;59.71;101033.25;5094204;28;20211;-73
2023/04/07 02:01:00;;;;;;;16.17;13.37;;;4.90;92.50;;;4.27;59.69;101031.38;5094310;28;20189;-73
2023/04/07 02:03:40;;;;;;;18.47;13.47;;;4.90;92.60;;;4.32;59.76;101034.50;5094306;28;20232;-73
2023/04/07 02:06:17;;;;;;;15.40;13.67;;;4.90;92.70;;;4.14;60.17;101027.06;5094093;28;20260;-73
2023/04/07 02:08:57;;;;;;;16.73;14.03;;;4.80;92.50;;;4.06;60.44;101025.84;5094210;28;20267;-73
2023/04/07 02:11:32;;;;;;;16.83;13.13;;;4.70;92.80;;;4.07;60.16;101031.97;5093814;28;20641;-73
2023/04/07 02:14:09;;;;;;;16.07;13.07;;;4.80;92.50;;;4.02;60.98;101028.81;5093803;28;20541;-73
2023/04/07 02:16:45;;;;;;;17.00;13.67;;;4.70;93.60;;;3.99;60.82;101029.03;5094154;28;20236;-73
2023/04/07 02:19:20;;;;;;;15.03;13.23;;;4.70;93.10;;;3.88;61.38;101032.44;5094012;28;20216;-73
2023/04/07 02:21:53;;;;;;;17.23;13.53;;;4.50;93.40;;;3.84;61.27;101030.13;5094012;28;20185;-73
2023/04/07 02:24:25;;;;;;;15.30;13.70;;;4.50;94.10;;;3.75;61.68;101025.50;5093943;28;20238;-73
2023/04/07 02:26:59;;;;;;;17.97;14.40;;;4.40;93.60;;;3.72;62.41;101025.72;5093702;28;20225;-73
2023/04/07 02:29:31;;;;;;;15.83;13.93;;;4.40;93.80;;;3.72;62.15;101023.06;5093580;28;20193;-73
2023/04/07 02:32:05;;;;;;;16.97;14.83;;;4.40;93.90;;;3.64;62.91;101023.63;5093801;28;20197;-73
2023/04/07 02:34:37;;;;;;;16.03;14.20;;;4.30;94.10;;;3.63;62.28;101024.56;5093951;28;20204;-73
2023/04/07 02:37:09;;;;;;;16.30;14.57;;;4.30;94.00;;;3.62;61.99;101022.03;5093694;28;20224;-73
2023/04/07 02:39:41;;;;;;;15.90;14.20;;;4.30;94.10;;;3.49;62.45;101024.72;5093765;28;20202;-73
2023/04/07 02:42:12;;;;;;;17.70;15.50;;;4.20;93.80;;;3.30;63.86;101033.09;5093730;28;20215;-73
2023/04/07 02:44:44;;;;;;;18.10;13.97;;;4.00;94.70;;;3.38;63.81;101027.25;5093388;28;20593;-73
2023/04/07 02:47:17;;;;;;;20.60;15.47;;;4.00;94.70;;;3.29;63.60;101028.75;5093569;28;20221;-73
2023/04/07 02:49:49;;;;;;;19.40;14.63;;;4.00;94.50;;;3.18;63.66;101036.59;5093653;28;20262;-73
2023/04/07 02:52:21;;;;;;;18.93;15.77;;;3.90;94.70;;;3.12;63.64;101036.19;5093625;28;20193;-73
2023/04/07 02:54:53;;;;;;;19.37;15.70;;;3.90;94.70;;;3.37;62.99;101033.50;5093784;28;20193;-73
2023/04/07 02:57:25;;;;;;;17.73;14.73;;;4.10;94.60;;;3.30;63.60;101035.72;5093627;28;20251;-73
2023/04/07 02:59:57;;;;;;;17.70;14.30;;;4.00;94.50;;;3.28;61.86;101032.34;5093205;28;20196;-73
2023/04/07 03:02:30;;;;;;;18.03;14.17;;;4.10;94.10;;;3.08;63.76;101030.25;5093828;28;20185;-73
2023/04/07 03:05:03;;;;;;;21.97;15.20;;;3.80;94.60;;;3.11;64.16;101030.03;5093520;28;20196;-73
2023/04/07 03:07:34;;;;;;;17.67;15.57;;;3.80;95.10;;;2.97;64.69;101032.78;5093385;28;20228;-73
2023/04/07 03:10:07;;;;;;;20.73;15.00;;;3.60;95.20;;;3.14;63.92;101027.19;5093461;28;20246;-73
2023/04/07 03:12:39;;;;;;;18.13;14.43;;;3.80;95.30;;;3.06;64.13;101032.13;5093429;28;20196;-73
2023/04/07 03:15:13;;;;;;;19.13;14.70;;;3.80;94.70;;;3.06;64.38;101032.13;5093414;28;20580;-73
2023/04/07 03:17:46;;;;;;;19.20;15.80;;;3.70;95.10;;;3.02;64.00;101041.22;5093594;28;20228;-73
2023/04/07 03:20:18;;;;;;;17.73;15.83;;;3.70;94.90;;;3.00;64.07;101044.00;5096351;28;20699;-73
2023/04/07 03:22:50;;;;;;;17.33;15.10;;;3.70;95.00;;;2.95;63.92;101038.16;5097420;28;20195;-73
2023/04/07 03:25:21;;;;;;;18.70;15.20;;;3.70;95.10;;;2.88;64.97;101038.66;5097271;28;20193;-73
2023/04/07 03:27:53;;;;;;;18.13;14.80;;;3.60;95.30;;;2.89;64.92;101046.50;5097241;28;20228;-73
2023/04/07 03:30:25;;;;;;;19.07;15.23;;;3.60;95.40;;;2.90;64.71;101039.44;5097227;28;20197;-73
2023/04/07 03:32:58;;;;;;;16.63;14.83;;;3.60;95.30;;;2.88;64.73;101039.53;5097129;28;20258;-72
2023/04/07 03:35:30;;;;;;;16.03;14.27;;;3.60;95.50;;;2.98;64.15;101039.75;5097065;28;20264;-72
2023/04/07 03:38:02;;;;;;;16.60;14.47;;;3.70;95.10;;;2.99;64.15;101037.00;5096693;28;20231;-73
2023/04/07 03:40:34;;;;;;;17.37;14.07;;;3.70;95.00;;;3.05;63.75;101033.06;5096712;28;20638;-73
2023/04/07 03:43:11;;;;;;;17.20;14.43;;;3.80;94.90;;;2.89;63.53;101038.56;5096936;28;20204;-73
2023/04/07 03:45:43;;;;;;;17.53;14.70;;;3.60;94.60;;;2.90;64.23;101036.78;5097114;28;20271;-74
2023/04/07 03:48:16;;;;;;;20.73;14.07;;;3.60;94.90;;;2.91;63.59;101038.50;5096888;28;20200;-72
2023/04/07 03:50:48;;;;;;;17.27;14.27;;;3.60;94.90;;;2.90;64.00;101042.06;5096786;28;20189;-73
2023/04/07 03:53:20;;;;;;;18.03;13.50;;;3.60;95.00;;;2.89;64.03;101040.38;5096766;28;20188;-73
2023/04/07 03:55:52;;;;;;;17.40;14.50;;;3.60;95.10;;;2.79;64.62;101048.09;5096415;28;20209;-73
2023/04/07 03:58:24;;;;;;;18.03;15.07;;;3.50;95.30;;;2.82;64.65;101039.94;5096311;28;20231;-73
2023/04/07 04:00:56;;;;;;;15.80;14.10;;;3.60;95.30;;;2.90;63.99;101044.72;5096608;28;20263;-73
2023/04/07 04:03:29;;;;;;;16.33;13.70;;;3.70;95.10;;;2.94;63.10;101040.91;5096568;28;20197;-73
2023/04/07 04:06:02;;;;;;;16.00;13.93;;;3.70;94.60;;;2.97;63.25;101038.06;5096732;28;20189;-73
2023/04/07 04:08:34;;;;;;;18.67;14.87;;;3.80;94.50;;;3.02;63.21;101049.16;5096588;28;20181;-73
2023/04/07 04:11:06;;;;;;;18.70;14.47;;;3.80;94.40;;;3.05;62.76;101051.59;5096429;28;20246;-73
2023/04/07 04:13:38;;;;;;;17.27;14.13;;;3.80;94.40;;;2.99;63.23;101052.88;5096369;28;20193;-73
2023/04/07 04:16:10;;;;;;;17.47;14.50;;;3.80;94.40;;;2.93;63.81;101058.59;5096225;28;20232;-73
2023/04/07 04:18:47;;;;;;;19.73;14.47;;;3.70;94.50;;;2.88;63.21;101058.03;5096293;28;20242;-73
2023/04/07 04:21:19;;;;;;;17.30;14.83;;;3.70;94.50;;;2.89;62.96;101051.81;5096262;28;20272;-73
2023/04/07 04:23:50;;;;;;;16.60;14.37;;;3.60;94.60;;;2.82;63.59;101058.47;5095873;28;20641;-73
2023/04/07 04:26:24;;;;;;;16.03;14.33;;;3.50;94.80;;;2.85;63.49;101060.88;5096085;28;20231;-73
2023/04/07 04:28:56;;;;;;;16.87;14.07;;;3.60;94.80;;;2.89;63.01;101057.09;5096129;28;20558;-73
2023/04/07 04:31:28;;;;;;;19.23;14.47;;;3.70;94.60;;;2.81;63.51;101053.28;5095680;28;20195;-73
2023/04/07 04:34:01;;;;;;;18.90;14.47;;;3.60;94.60;;;2.82;63.12;101058.47;5095711;28;20607;-73
2023/04/07 04:36:33;;;;;;;17.40;15.17;;;3.60;94.60;;;2.82;63.99;101068.19;5095478;28;20228;-73
2023/04/07 04:39:07;;;;;;;20.70;15.07;;;3.60;94.60;;;2.84;63.02;101066.28;5095919;28;20188;-73
2023/04/07 04:41:39;;;;;;;16.90;14.97;;;3.60;94.60;;;2.77;64.16;101070.31;5095851;28;20192;-73
2023/04/07 04:44:11;;;;;;;18.60;14.80;;;3.50;94.70;;;2.79;63.88;101071.03;5095840;28;20243;-73
2023/04/07 04:46:43;;;;;;;17.27;15.20;;;3.60;95.00;;;2.76;63.58;101072.09;5095709;28;20245;-73
2023/04/07 04:49:17;;;;;;;16.13;14.30;;;3.60;94.80;;;2.78;63.18;101070.19;5095756;28;20192;-73
2023/04/07 04:51:49;;;;;;;16.03;13.40;;;3.60;94.70;;;2.76;63.15;101071.25;5096245;28;20192;-73
2023/04/07 04:54:21;;;;;;;15.00;13.40;;;3.60;94.40;;;2.77;63.06;101072.94;5096163;28;20193;-73
2023/04/07 04:56:53;;;;;;;16.03;13.67;;;3.60;94.30;;;2.80;62.47;101078.03;5095426;28;20243;-73
2023/04/07 04:59:25;;;;;;;14.70;13.13;;;3.60;94.30;;;2.83;62.96;101080.47;5095182;28;20635;-73
2023/04/07 05:01:57;;;;;;;15.00;13.10;;;3.70;94.30;;;2.81;63.11;101075.25;5095147;28;20189;-73
2023/04/07 05:04:30;;;;;;;15.90;13.83;;;3.60;94.30;;;2.85;63.25;101076.75;5095053;28;20557;-73
2023/04/07 05:07:03;;;;;;;17.17;13.63;;;3.70;94.50;;;2.81;62.75;101074.44;5095280;28;20232;-73
2023/04/07 05:09:35;;;;;;;16.47;13.33;;;3.70;94.20;;;2.82;62.93;101076.09;5095380;28;20186;-74
2023/04/07 05:12:07;;;;;;;15.80;13.53;;;3.70;94.20;;;2.81;62.76;101085.00;5096255;28;20196;-74
2023/04/07 05:14:39;;;;;;;14.43;12.90;;;3.70;94.20;;;2.83;62.73;101085.75;5095229;28;20562;-74
2023/04/07 05:17:11;;;;;;;16.20;13.40;;;3.70;94.20;;;2.89;62.90;101083.53;5095019;28;20316;-74
2023/04/07 05:19:45;;;;;;;18.13;13.23;;;3.70;94.20;;;2.86;61.89;101089.03;5095144;28;20276;-74
2023/04/07 05:22:16;;;;;;;16.87;12.57;;;3.70;94.00;;;2.88;63.13;101081.84;5095605;28;20189;-74
2023/04/07 05:24:48;;;;;;;17.20;13.57;;;3.70;94.10;;;2.87;63.03;101087.25;5095078;28;20203;-74
2023/04/07 05:27:20;;;;;;;15.40;12.90;;;3.70;94.20;;;2.89;62.77;101087.97;5094604;28;20593;-74
2023/04/07 05:29:52;;;;;;;15.90;13.20;;;3.70;94.20;;;2.86;62.72;101088.19;5095179;28;20201;-74
2023/04/07 05:32:24;;;;;;;14.20;12.40;;;3.70;94.10;;;2.87;62.50;101084.59;5094822;28;20193;-73
2023/04/07 05:34:58;;;;;;;14.83;12.00;;;3.70;93.90;;;2.76;62.15;101087.09;5094504;28;20203;-74
2023/04/07 05:37:30;;;;;;;16.87;12.73;;;3.60;93.80;;;2.75;62.13;101088.03;5094630;28;20238;-74
2023/04/07 05:40:02;;;;;;;13.77;12.03;;;3.60;93.70;;;2.79;62.15;101093.03;5094792;28;20188;-74
2023/04/07 05:42:33;;;;;;;16.27;12.67;;;3.70;93.70;;;2.82;61.78;101090.19;5094481;28;20255;-74
2023/04/07 05:45:05;;;;;;;15.47;12.80;;;3.70;93.70;;;2.82;61.96;101087.53;5094638;28;20197;-73
2023/04/07 05:47:37;;;;;;;16.57;12.23;;;3.70;93.50;;;2.81;61.80;101090.31;5094574;28;20228;-74
2023/04/07 05:50:13;;;;;;;13.57;11.87;;;3.70;93.60;;;2.85;62.13;101097.06;5094534;28;20196;-73
2023/04/07 05:52:45;;;;;;;14.60;12.30;;;3.70;93.60;;;2.88;61.83;101096.84;5094513;28;20184;-71
2023/04/07 05:55:17;;;;;;;15.00;12.13;;;3.80;93.60;;;2.90;62.04;101101.09;5094440;28;20189;-71
2023/04/07 05:57:49;;;;;;;14.20;12.70;;;3.80;93.60;;;2.91;62.15;101112.53;5094162;28;20232;-71
2023/04/07 06:00:22;;;;;;;13.23;11.60;;;3.80;93.70;;;2.89;62.29;101104.69;5094287;28;20188;-71
2023/04/07 06:02:54;;;;;;;13.63;12.20;;;3.80;93.80;;;2.87;61.99;101111.03;5094304;28;20197;-71
2023/04/07 06:05:27;;;;;;;14.57;12.70;;;3.80;93.80;;;2.85;62.37;101113.78;5094211;28;20284;-71
2023/04/07 06:07:59;;;;;;;17.40;13.10;;;3.70;93.80;;;2.87;62.77;101117.19;5094097;28;20353;-71
2023/04/07 06:10:31;;;;;;;15.17;12.80;;;3.80;94.00;;;2.89;62.38;101109.97;5093814;28;20637;-71
2023/04/07 06:13:03;;;;;;;16.63;12.93;;;3.80;93.90;;;2.92;62.06;101114.22;5094129;28;20233;-71
2023/04/07 06:15:34;;;;;;;15.17;12.87;;;3.80;93.80;;;2.94;62.25;101117.63;5093760;28;20189;-71
2023/04/07 06:18:06;;;;;;;16.10;12.80;;;3.90;93.90;;;2.98;62.00;101125.22;5093896;28;20236;-71
2023/04/07 06:20:39;;;;;;;16.60;12.43;;;3.90;93.80;;;3.00;62.05;101125.13;5094040;28;20211;-71
2023/04/07 06:23:11;;;;;;;13.83;12.17;;;3.90;93.70;;;3.05;62.32;101128.31;5094001;28;20189;-71
2023/04/07 06:25:43;;;;;;;14.53;12.90;;;3.90;93.70;;;3.09;61.96;101127.16;5093820;28;20192;-71
2023/04/07 06:28:15;;;;;;;14.97;12.73;;;4.00;93.70;;;3.10;62.70;101131.50;5093760;28;20216;-71
2023/04/07 06:30:47;;;;;;;14.93;12.80;;;4.00;93.90;;;3.09;62.46;101132.44;5094048;28;20193;-71
2023/04/07 06:33:24;;;;;;;15.70;12.73;;;4.00;93.80;;;3.13;62.62;101130.44;5093742;28;20189;-71
2023/04/07 06:35:57;;;;;;;13.37;11.77;;;4.00;93.80;;;3.16;62.69;101130.22;5094251;28;20185;-71
2023/04/07 06:38:29;;;;;;;15.50;13.30;;;4.10;93.80;;;3.16;62.18;101133.72;5093507;28;20212;-71
2023/04/07 06:41:01;;;;;;;14.67;12.93;;;4.10;94.30;;;3.18;61.95;101136.28;5093600;28;20197;-71
2023/04/07 06:43:32;;;;;;;14.47;12.63;;;4.10;93.80;;;3.20;62.03;101135.22;5093512;28;20196;-71
2023/04/07 06:46:04;;;;;;;17.13;12.30;;;4.10;93.70;;;3.23;61.75;101132.34;5093430;28;20228;-71
2023/04/07 06:48:36;;;;;;;15.03;12.50;;;4.20;93.60;;;3.25;61.66;101138.41;5093537;28;20181;-71
2023/04/07 06:51:09;;;;;;;14.67;11.80;;;4.20;93.40;;;3.27;61.08;101135.66;5093478;28;20200;-71
2023/04/07 06:53:43;;;;;;;13.30;11.80;;;4.20;93.20;;;3.32;61.35;101147.59;5094021;28;20193;-71
2023/04/07 06:56:17;;;;;;;12.83;11.50;;;4.20;93.00;;;3.37;60.24;101142.84;5097310;28;20220;-71
2023/04/07 06:58:49;;;;;;;15.70;12.27;;;4.30;92.90;;;3.42;61.02;101146.06;5097510;28;20224;-72
2023/04/07 07:01:21;;;;;;;13.43;11.57;;;4.30;92.80;;;3.47;60.31;101143.91;5097649;28;20324;-72
2023/04/07 07:03:53;;;;;;;14.73;12.00;;;4.40;92.60;;;3.53;61.51;101153.22;5097567;28;20189;-74
2023/04/07 07:06:27;;;;;;;14.87;12.50;;;4.50;93.10;;;3.62;60.48;101149.97;5097478;28;20220;-74
2023/04/07 07:08:58;;;;;;;16.10;12.60;;;4.50;92.90;;;3.69;60.67;101143.31;5097514;28;20192;-74
2023/04/07 07:11:30;;;;;;;13.37;11.97;;;4.60;92.90;;;3.77;60.49;101145.38;5097421;28;20205;-74
2023/04/07 07:14:02;;;;;;;14.53;11.80;;;4.70;92.70;;;3.85;59.77;101151.88;5097086;28;20196;-74
2023/04/07 07:16:32;;;;;;;14.77;11.73;;;4.80;92.40;;;3.96;59.71;101145.81;5097297;28;20232;-74
2023/04/07 07:19:04;;;;;;;14.57;13.03;;;4.90;92.30;;;4.03;60.79;101152.38;5097189;28;20228;-74
2023/04/07 07:21:37;;;;;;;15.20;12.07;;;5.00;92.80;;;4.14;60.68;101149.81;5096964;28;20203;-74
2023/04/07 07:24:10;;;;;;;14.43;12.50;;;5.10;92.70;;;4.29;60.34;101154.00;5096942;28;20637;-74
2023/04/07 07:26:42;;;;;;;13.97;12.17;;;5.20;92.80;;;4.36;60.39;101160.56;5097063;28;20236;-74
2023/04/07 07:29:15;;;;;;;12.03;10.83;;;5.30;92.50;;;4.42;60.56;101162.75;5096845;28;20684;-74
2023/04/07 07:31:48;;;;;;;15.47;11.70;;;5.30;92.80;;;4.57;59.14;101161.66;5097071;28;20193;-74
2023/04/07 07:34:20;;;;;;;12.70;10.33;;;5.50;92.10;;;4.64;59.10;101163.84;5097027;28;20189;-74
2023/04/07 07:36:53;;;;;;;13.60;11.30;;;5.60;91.80;;;4.73;58.03;101171.13;5096834;28;20731;-74
2023/04/07 07:39:25;;;;;;;12.50;11.30;;;5.70;91.20;;;4.81;58.00;101171.44;5096569;28;20209;-74
2023/04/07 07:41:57;;;;;;;12.37;11.07;;;5.70;91.10;;;4.83;57.72;101174.84;5096620;28;20673;-74
2023/04/07 07:44:29;;;;;;;15.77;11.03;;;5.80;91.20;;;4.87;58.29;101182.44;5096532;28;20189;-74
2023/04/07 07:47:03;;;;;;;12.67;11.37;;;5.80;91.30;;;4.94;57.95;101169.56;5096436;28;20730;-74
2023/04/07 07:49:35;;;;;;;13.97;10.80;;;5.80;91.10;;;5.01;57.07;101173.44;5096453;28;20630;-74
2023/04/07 07:52:08;;;;;;;13.60;11.73;;;5.90;90.90;;;5.08;57.38;101180.00;5096511;28;20656;-74
2023/04/07 07:54:41;;;;;;;15.63;11.20;;;6.00;90.90;;;5.20;57.00;101187.06;5096775;28;20220;-74
2023/04/07 07:57:13;;;;;;;13.73;11.80;;;6.10;90.60;;;5.30;57.13;101184.53;5096701;28;20220;-74
2023/04/07 07:59:45;;;;;;;11.53;10.33;;;6.20;90.60;;;5.34;57.02;101184.19;5096407;28;20270;-74
2023/04/07 08:02:17;;;;;;;12.80;10.47;;;6.30;90.60;;;5.53;55.29;101192.47;5096504;28;20189;-74
2023/04/07 08:04:49;;;;;;;12.10;9.90;;;6.40;89.50;;;5.70;54.15;101192.97;5096405;28;20199;-74
2023/04/07 08:07:22;;;;;;;11.00;9.03;;;6.50;87.40;;;5.80;54.26;101189.47;5095976;28;20267;-74
2023/04/07 08:09:54;;;;;;;11.13;9.43;;;6.60;88.40;;;5.89;53.53;101193.28;5096053;28;20196;-74
2023/04/07 08:12:26;;;;;;;11.17;9.00;;;6.70;87.20;;;6.00;53.21;101187.97;5095167;28;20603;-75
2023/04/07 08:14:58;;;;;;;11.93;9.30;;;6.90;86.30;;;6.17;54.02;101192.78;5095751;28;20185;-75
2023/04/07 08:17:30;;;;;;;11.83;8.83;;;7.10;86.60;;;6.33;52.67;101192.44;5096068;28;20228;-73
2023/04/07 08:20:03;;;;;;;11.20;8.80;;;7.20;85.30;;;6.45;53.17;101189.63;5096067;28;20699;-73
2023/04/07 08:22:36;;;;;;;11.97;9.83;;;7.30;85.80;;;6.51;53.48;101191.78;5096260;28;20208;-73
2023/04/07 08:25:09;;;;;;;14.47;9.87;;;7.40;86.30;;;6.55;55.61;101192.41;5096261;28;20189;-73
2023/04/07 08:27:41;;;;;;;11.73;9.37;;;7.40;88.00;;;6.72;53.71;101183.03;5095806;28;20609;-73
2023/04/07 08:30:13;;;;;;;12.23;9.80;;;7.60;87.80;;;6.88;53.77;101191.50;5095818;28;20181;-73
2023/04/07 08:32:47;;;;;;;13.43;9.00;;;7.80;86.70;;;7.00;53.95;101196.66;5096030;28;20192;-73
2023/04/07 08:35:19;;;;;;;11.47;10.23;;;7.90;86.90;;;7.12;52.68;101200.94;5095767;28;20533;-71
2023/04/07 08:37:52;;;;;;;10.93;9.27;;;7.90;84.90;;;7.32;51.04;101188.66;5095948;28;20228;-73
2023/04/07 08:40:24;;;;;;;11.60;9.97;;;8.20;82.80;;;7.41;50.81;101198.53;5095885;28;20207;-71
2023/04/07 08:43:00;;;;;;;11.80;9.50;;;8.30;82.00;;;7.48;50.88;101202.38;5095646;28;20547;-71
2023/04/07 08:45:33;;;;;;;15.97;10.03;;;8.30;81.70;;;7.60;50.21;101198.66;5095534;28;20658;-73
2023/04/07 08:48:16;;;;;;;12.60;9.73;;;8.40;81.50;;;7.55;51.48;101195.53;5095408;28;20217;-73
2023/04/07 08:50:52;;;;;;;12.03;9.20;;;8.40;82.10;;;7.71;50.57;101199.56;5095729;28;20193;-72
2023/04/07 08:53:36;;;;;;;12.53;8.83;;;8.60;81.10;;;7.79;50.41;101194.44;5095840;28;20192;-73
2023/04/07 08:56:11;;;;;;;13.50;8.70;;;8.60;81.40;;;8.03;47.84;101197.66;5095545;28;20224;-73
2023/04/07 08:58:43;;;;;;;11.07;8.73;;;8.90;76.30;;;8.10;48.47;101201.47;5095058;28;20224;-73
2023/04/07 09:01:16;;;;;;;11.53;8.30;;;8.90;74.90;;;8.13;49.19;101193.19;5095202;28;20549;-73
2023/04/07 09:03:51;;;;;;;13.97;8.83;;;9.00;76.00;;;8.30;45.71;101197.94;5095116;28;20193;-73
2023/04/07 09:06:23;;;;;;;11.13;8.87;;;9.10;71.60;;;8.36;47.54;101199.22;5095023;28;20641;-72
2023/04/07 09:08:57;;;;;;;11.80;9.43;;;9.20;73.20;;;8.53;47.37;101203.91;5095341;28;20186;-73
2023/04/07 09:11:35;;;;;;;10.43;8.47;;;9.40;73.00;;;8.74;44.35;101195.81;5095300;28;20196;-73
2023/04/07 09:14:07;;;;;;;12.33;8.60;;;9.50;69.10;;;8.83;45.52;101195.00;5094876;28;20629;-73
2023/04/07 09:16:40;;;;;;;12.07;8.90;;;9.70;68.20;;;8.87;44.21;101196.44;5093935;28;20231;-73
2023/04/07 09:19:12;;;;;;;9.67;8.60;;;9.70;67.80;;;8.85;47.35;101193.88;5095087;28;20239;-73
2023/04/07 09:21:54;;;;;;;10.60;8.37;;;9.70;72.60;;;9.01;45.56;101212.03;5095063;28;20193;-73
2023/04/07 09:24:30;;;;;;;10.67;9.17;;;9.80;69.60;;;9.13;44.57;101210.94;5095014;28;20181;-73
2023/04/07 09:27:17;;;;;;;13.80;9.00;;;9.90;68.60;;;9.28;42.82;101206.84;5095219;28;20229;-73
2023/04/07 09:29:50;;;;;;;12.83;9.53;;;10.10;65.60;;;9.47;42.46;101201.50;5094691;28;20201;-73
2023/04/07 09:32:37;;;;;;;10.20;8.43;;;10.30;63.60;;;9.55;42.67;101203.47;5094922;28;20223;-73
2023/04/07 09:35:11;;;;;;;10.27;8.90;;;10.30;64.40;;;9.59;42.17;101207.53;5094871;28;20189;-73
2023/04/07 09:37:44;;;;;;;11.23;8.97;;;10.30;63.90;;;9.62;42.45;101197.38;5094730;28;20232;-73
2023/04/07 09:40:29;;;;;;;9.87;8.07;;;10.40;63.10;;;9.67;43.95;101205.84;5094275;28;20692;-74
2023/04/07 09:43:02;;;;;;;11.03;8.23;;;10.40;65.40;;;9.77;40.75;101213.00;5094407;28;20196;-73
2023/04/07 09:45:35;;;;;;;10.60;8.17;;;10.50;60.30;;;9.93;41.16;101210.59;5094101;28;20189;-74
2023/04/07 09:48:20;;;;;;;9.67;7.50;;;10.70;60.40;;;9.94;41.63;101207.75;5093620;28;20229;-74
2023/04/07 09:51:05;;;;;;;10.23;8.30;;;10.70;62.00;;;10.03;41.41;101209.53;5094607;28;20189;-74
2023/04/07 09:53:47;;;;;;;11.37;8.20;;;10.80;60.10;;;10.11;42.12;101208.81;5094552;28;20200;-74
2023/04/07 09:56:22;;;;;;;9.73;8.07;;;10.90;61.10;;;10.22;41.41;101208.69;5094462;28;20259;-74
2023/04/07 09:58:55;;;;;;;10.97;8.00;;;10.90;60.80;;;10.27;42.00;101201.06;5094027;28;20224;-74
2023/04/07 10:01:27;;;;;;;10.00;7.57;;;11.00;61.70;;;10.64;39.84;101207.22;5094363;28;20200;-74
2023/04/07 10:04:00;;;;;;;12.07;7.77;;;11.30;57.90;;;10.57;42.23;101210.66;5094329;28;20217;-74
2023/04/07 10:06:32;;;;;;;9.87;7.40;;;11.30;61.00;;;10.66;38.24;101202.56;5094235;28;20221;-74
2023/04/07 10:09:07;;;;;;;9.37;7.67;;;11.40;55.90;;;10.75;39.42;101210.69;5094025;28;20664;-74
2023/04/07 10:11:41;;;;;;;9.10;7.40;;;11.50;56.40;;;10.81;38.88;101215.44;5093901;28;20589;-74
2023/04/07 10:14:15;;;;;;;10.93;7.83;;;11.50;57.00;;;10.91;37.02;101202.81;5093933;28;20189;-73
2023/04/07 10:16:48;;;;;;;10.40;8.20;;;11.60;54.30;;;10.89;38.33;101212.88;5094099;28;20221;-74
2023/04/07 10:19:22;;;;;;;10.23;8.40;;;11.50;54.80;;;10.91;37.62;101214.38;5094044;28;20299;-73
2023/04/07 10:21:56;;;;;;;9.97;7.80;;;11.60;53.30;;;11.00;39.43;101212.63;5093879;28;20652;-74
2023/04/07 10:24:45;;;;;;;10.47;7.93;;;11.70;56.10;;;11.04;37.10;101204.13;5093962;28;20193;-75
2023/04/07 10:27:24;;;;;;;10.40;7.70;;;11.80;54.00;;;11.20;38.38;101212.34;5093810;28;20231;-73
2023/04/07 10:29:57;;;;;;;10.20;8.33;;;11.90;55.70;;;11.39;35.99;101205.13;5093597;28;20192;-73
2023/04/07 10:32:29;;;;;;;10.00;8.33;;;12.10;53.10;;;11.51;36.76;101206.56;5093957;28;20193;-73
2023/04/07 10:35:05;;;;;;;11.83;8.60;;;12.10;53.10;;;11.57;37.07;101212.19;5093527;28;20537;-74
2023/04/07 10:37:37;;;;;;;13.07;9.00;;;12.20;54.10;;;11.68;37.17;101213.75;5093782;28;20307;-74
2023/04/07 10:40:33;;;;;;;9.87;8.23;;;12.30;53.70;;;11.75;38.34;101212.16;5093387;28;20703;-74